José Martí International Airport
MUHA : rendu visible

Aérodrome :











RETROUVEZ-NOUS SUR...

 
LOGIN :

S'inscrire | Disclaimer

   EN    FR    IT 

 









Légende :    VFR   VFR Marginal   IFR   IFR Intensif   IFR Très Intensif
Visi : 
Plafond : 
>= 8 km
>= 3000ft
5 à 8 km
1000 à 3000 ft
1500m à 5 km
500 à 1000 ft
800 à 1500m
200 à 500 ft
< 800m
< 200 ft
Symboles :   Orages  Brouillard  Fortes neiges  Fortes précipitations  Vent > 20 kt






- Altitude de l'aérodrome : 210 ft
- Code IATA : HAV


MUHA - José Martí International

DERNIER METAR :
  • 201655Z 02013KT 9000 SCT035 26/16 Q1019

METARs EXPIRÉS :
  • 201555Z 04013KT 9000 SCT035 25/17 Q1020
  • 201455Z 04012KT 010V070 9000 SCT030 25/17 Q1019

TAF MUHA
Valide du 20 à 18h jusqu'au 21 à 18h UTC


201700Z 2018/2118 04013KT 9000 SCT030
BECMG 2101/2103 06003KT
BECMG 2112/2114 08013KT



MET'MAP, la Météo Aéronautique d'un coup d'oeil ! - Copyright ORBIFLY Décembre 2007 - Disclaimer

ORBIFLY MET'MAP TEAM :

Programmation & Développement : Alexandra Zaïnal
Conception & Développement : Baudouin d'Aumeries
Co-Programmation & Développement : Marc-Olivier Méhu
Soutien technique & logistique : Manuel Goepfert

Contact : metmap@orbifly.com




SOURCES & CREDITS :

   NOAA       Earth
Advisory